Time;durP1;ratioP1;P1;durP2;ratioP2;P2;SDS_P1;SDS_P2;PMS_P1;PMS_P2;Temp;Humidity;BMP_temperature;BMP_pressure;BME280_temperature;BME280_humidity;BME280_pressure;Samples;Min_cycle;Max_cycle;Signal;HPM_P1;HPM_P2
2024/01/06 00:01:18;;;;;;;25.80;13.90;;;;;;;-0.10;74.04;99501.85;130826;1254;107595;-78
2024/01/06 00:04:24;;;;;;;24.50;14.10;;;;;;;-0.07;74.02;99491.71;130981;1258;106371;-78
2024/01/06 00:07:31;;;;;;;24.50;13.70;;;;;;;-0.04;74.02;99489.56;131046;1256;107011;-78
2024/01/06 00:10:37;;;;;;;23.80;13.40;;;;;;;0.03;74.12;99485.98;131005;1252;106787;-78
2024/01/06 00:13:43;;;;;;;23.30;12.40;;;;;;;0.07;74.10;99484.98;130982;1254;107674;-78
2024/01/06 00:16:50;;;;;;;22.10;11.90;;;;;;;0.07;74.22;99491.08;130989;1257;106436;-78
2024/01/06 00:19:55;;;;;;;20.40;11.90;;;;;;;0.01;74.12;99491.16;131045;1252;107943;-78
2024/01/06 00:23:03;;;;;;;23.80;12.00;;;;;;;0.02;74.31;99490.24;130883;1253;108597;-77
2024/01/06 00:26:10;;;;;;;21.50;11.90;;;;;;;-0.01;74.33;99488.13;130959;1253;108332;-78
2024/01/06 00:29:16;;;;;;;21.10;11.90;;;;;;;-0.03;74.50;99486.54;131026;1256;108548;-78
2024/01/06 00:32:21;;;;;;;27.60;14.50;;;;;;;-0.06;74.46;99487.24;130986;1253;106858;-78
2024/01/06 00:35:27;;;;;;;22.30;12.00;;;;;;;-0.05;74.37;99480.53;130988;1255;105280;-77
2024/01/06 00:38:33;;;;;;;21.80;12.90;;;;;;;-0.08;74.59;99487.20;130990;1253;106538;-77
2024/01/06 00:41:38;;;;;;;27.00;13.20;;;;;;;-0.12;74.64;99486.61;130987;1255;107425;-77
2024/01/06 00:44:45;;;;;;;22.70;13.80;;;;;;;-0.13;74.82;99489.33;130964;1256;106384;-77
2024/01/06 00:47:50;;;;;;;23.80;12.70;;;;;;;-0.17;74.81;99484.54;130792;1256;108571;-77
2024/01/06 00:50:56;;;;;;;21.50;11.50;;;;;;;-0.21;75.06;99482.47;130907;1255;108647;-77
2024/01/06 00:54:02;;;;;;;23.80;11.50;;;;;;;-0.21;74.98;99480.77;130848;1253;105561;-77
2024/01/06 00:57:08;;;;;;;21.90;12.60;;;;;;;-0.18;75.08;99471.48;130894;1253;108559;-77
2024/01/06 01:00:16;;;;;;;38.60;22.70;;;;;;;-0.11;75.01;99477.27;130957;1256;108542;-76
2024/01/06 01:03:22;;;;;;;39.30;23.00;;;;;;;-0.07;75.02;99473.52;130999;1256;108730;-77
2024/01/06 01:06:27;;;;;;;22.60;12.50;;;;;;;-0.06;74.99;99471.17;131023;1256;108660;-77
2024/01/06 01:09:33;;;;;;;21.20;12.30;;;;;;;-0.04;74.93;99473.16;131025;1253;106422;-77
2024/01/06 01:12:39;;;;;;;24.30;13.20;;;;;;;-0.04;74.97;99478.72;131002;1256;108684;-77
2024/01/06 01:15:45;;;;;;;20.40;12.20;;;;;;;-0.06;75.12;99485.48;130971;1258;108653;-77
2024/01/06 01:18:50;;;;;;;20.30;11.00;;;;;;;-0.10;75.12;99486.67;130999;1256;108305;-76
2024/01/06 01:21:57;;;;;;;23.50;13.90;;;;;;;-0.15;75.03;99491.34;131080;1251;106742;-77
2024/01/06 01:25:08;;;;;;;21.30;13.00;;;;;;;-0.14;75.10;99493.95;130938;1255;108619;-77
2024/01/06 01:28:14;;;;;;;20.60;11.40;;;;;;;-0.15;75.22;99484.75;130949;1254;106986;-77
2024/01/06 01:31:20;;;;;;;19.80;11.50;;;;;;;-0.22;75.30;99482.73;130955;1256;108810;-78
2024/01/06 01:34:26;;;;;;;19.30;11.30;;;;;;;-0.24;75.42;99496.70;130766;1258;107768;-77
2024/01/06 01:37:32;;;;;;;24.90;12.50;;;;;;;-0.27;75.44;99500.77;131001;1256;106381;-78
2024/01/06 01:40:38;;;;;;;21.50;12.00;;;;;;;-0.35;75.61;99497.20;131000;1254;108681;-77
2024/01/06 01:43:44;;;;;;;21.50;11.50;;;;;;;-0.34;75.54;99485.47;130972;1256;107022;-77
2024/01/06 01:46:50;;;;;;;16.60;9.60;;;;;;;-0.29;75.66;99495.60;130851;1257;109017;-78
2024/01/06 01:49:56;;;;;;;19.70;10.60;;;;;;;-0.25;75.53;99487.45;131048;1255;108629;-75
2024/01/06 01:53:04;;;;;;;19.80;10.60;;;;;;;-0.20;75.57;99491.50;131068;1256;106357;-76
2024/01/06 01:56:10;;;;;;;18.90;11.10;;;;;;;-0.16;75.38;99496.83;130802;1261;106755;-77
2024/01/06 01:59:20;;;;;;;17.90;10.50;;;;;;;-0.13;75.46;99494.89;130968;1256;107733;-78
2024/01/06 02:02:27;;;;;;;18.70;10.20;;;;;;;-0.13;75.46;99498.02;131007;1256;106302;-78
2024/01/06 02:05:33;;;;;;;20.80;11.00;;;;;;;-0.12;75.53;99493.61;131016;1256;108373;-79
2024/01/06 02:08:40;;;;;;;19.50;10.60;;;;;;;-0.13;75.66;99483.34;131044;1263;109020;-77
2024/01/06 02:11:46;;;;;;;19.30;11.00;;;;;;;-0.15;75.69;99484.56;130996;1256;107086;-77
2024/01/06 02:14:51;;;;;;;17.80;10.90;;;;;;;-0.19;75.71;99487.98;130942;1256;107113;-78
2024/01/06 02:17:57;;;;;;;20.00;10.40;;;;;;;-0.23;75.73;99482.79;130937;1256;109184;-77
2024/01/06 02:21:03;;;;;;;16.50;9.90;;;;;;;-0.25;75.85;99488.19;130950;1256;106347;-77
2024/01/06 02:24:10;;;;;;;19.60;11.00;;;;;;;-0.28;75.93;99486.98;131012;1254;108557;-78
2024/01/06 02:27:16;;;;;;;17.50;9.70;;;;;;;-0.31;76.10;99484.94;130956;1256;106492;-77
2024/01/06 02:30:22;;;;;;;18.70;10.20;;;;;;;-0.34;76.18;99494.55;131029;1251;107492;-78
2024/01/06 02:33:28;;;;;;;19.40;11.00;;;;;;;-0.37;76.23;99486.59;131034;1253;106500;-78
2024/01/06 02:36:33;;;;;;;17.60;10.20;;;;;;;-0.37;76.29;99488.83;130991;1253;107005;-79
2024/01/06 02:39:39;;;;;;;18.90;9.50;;;;;;;-0.31;76.32;99482.50;130983;1251;108350;-77
2024/01/06 02:42:45;;;;;;;17.10;10.20;;;;;;;-0.25;76.34;99482.44;131027;1255;107639;-77
2024/01/06 02:45:51;;;;;;;17.40;9.90;;;;;;;-0.22;76.16;99485.70;130963;1255;107694;-78
2024/01/06 02:48:57;;;;;;;17.00;10.20;;;;;;;-0.18;76.18;99484.56;131026;1255;107365;-77
2024/01/06 02:52:02;;;;;;;18.20;10.90;;;;;;;-0.17;75.97;99484.31;131031;1253;107676;-77
2024/01/06 02:55:09;;;;;;;17.40;10.20;;;;;;;-0.17;76.27;99487.63;130975;1256;108700;-77
2024/01/06 02:58:14;;;;;;;18.60;10.80;;;;;;;-0.20;76.18;99483.09;130986;1256;108754;-77
2024/01/06 03:01:21;;;;;;;20.50;11.50;;;;;;;-0.22;76.14;99478.71;130975;1256;108552;-78
2024/01/06 03:04:26;;;;;;;19.20;11.00;;;;;;;-0.22;76.32;99480.80;131001;1254;108703;-78
2024/01/06 03:07:32;;;;;;;19.20;11.60;;;;;;;-0.21;76.30;99477.10;131024;1256;108616;-78
2024/01/06 03:10:38;;;;;;;20.70;11.80;;;;;;;-0.25;76.24;99470.87;130987;1255;107106;-78
2024/01/06 03:13:44;;;;;;;18.90;10.90;;;;;;;-0.28;76.35;99475.27;130982;1253;106486;-78
2024/01/06 03:16:49;;;;;;;18.90;11.10;;;;;;;-0.29;76.55;99480.09;130962;1257;107646;-77
2024/01/06 03:19:56;;;;;;;21.10;11.80;;;;;;;-0.34;76.40;99474.80;130964;1255;107531;-77
2024/01/06 03:23:02;;;;;;;22.30;12.00;;;;;;;-0.36;76.60;99466.95;131003;1256;108551;-76
2024/01/06 03:26:09;;;;;;;21.90;10.90;;;;;;;-0.36;76.73;99473.77;130961;1256;108490;-79
2024/01/06 03:29:15;;;;;;;17.40;9.30;;;;;;;-0.33;76.62;99487.54;131199;1253;106842;-78
2024/01/06 03:32:21;;;;;;;19.20;11.00;;;;;;;-0.29;76.67;99488.30;131190;1256;108693;-77
2024/01/06 03:35:27;;;;;;;18.70;10.20;;;;;;;-0.24;76.64;99487.63;130783;1256;245027;-78
2024/01/06 03:38:33;;;;;;;18.60;10.50;;;;;;;-0.22;76.65;99480.83;131020;1255;106560;-77
2024/01/06 03:41:38;;;;;;;19.70;10.80;;;;;;;-0.24;76.66;99472.73;130960;1258;106984;-77
2024/01/06 03:44:44;;;;;;;21.40;11.50;;;;;;;-0.26;76.51;99471.98;130988;1256;107347;-77
2024/01/06 03:47:49;;;;;;;18.70;11.00;;;;;;;-0.28;76.68;99474.03;131009;1254;108653;-78
2024/01/06 03:50:55;;;;;;;22.00;12.80;;;;;;;-0.30;76.73;99475.05;130985;1256;106273;-77
2024/01/06 03:54:01;;;;;;;21.30;11.60;;;;;;;-0.32;76.78;99473.65;131010;1254;106424;-78
2024/01/06 03:57:07;;;;;;;18.50;11.40;;;;;;;-0.34;76.86;99476.45;131013;1256;106593;-77
2024/01/06 04:00:14;;;;;;;20.40;10.90;;;;;;;-0.36;76.86;99475.64;130993;1256;107537;-77
2024/01/06 04:03:20;;;;;;;20.60;11.30;;;;;;;-0.39;76.75;99477.77;130998;1256;106132;-77
2024/01/06 04:06:26;;;;;;;22.80;12.80;;;;;;;-0.41;76.96;99477.87;130947;1256;108557;-77
2024/01/06 04:09:31;;;;;;;21.20;12.20;;;;;;;-0.43;76.94;99482.03;131018;1257;109160;-78
2024/01/06 04:12:37;;;;;;;24.30;12.80;;;;;;;-0.41;77.05;99483.65;131005;1264;108392;-77
2024/01/06 04:15:43;;;;;;;22.80;12.30;;;;;;;-0.32;77.26;99485.02;130966;1256;107680;-78
2024/01/06 04:18:48;;;;;;;23.60;12.60;;;;;;;-0.23;77.05;99481.09;131010;1254;107614;-77
2024/01/06 04:21:55;;;;;;;23.10;11.70;;;;;;;-0.16;76.94;99479.73;131046;1256;106864;-78
2024/01/06 04:25:01;;;;;;;25.60;14.10;;;;;;;-0.12;76.86;99485.73;130804;1257;106490;-77
2024/01/06 04:28:07;;;;;;;23.10;13.30;;;;;;;-0.08;76.77;99485.14;130968;1254;106348;-77
2024/01/06 04:31:12;;;;;;;21.80;11.40;;;;;;;-0.07;76.77;99491.33;130993;1256;106429;-77
2024/01/06 04:34:18;;;;;;;19.80;11.20;;;;;;;-0.08;76.74;99489.30;131001;1253;108236;-78
2024/01/06 04:37:24;;;;;;;20.90;11.70;;;;;;;-0.12;76.84;99483.48;131045;1256;107867;-77
2024/01/06 04:40:30;;;;;;;20.60;11.40;;;;;;;-0.18;76.84;99480.73;130986;1257;106355;-76
2024/01/06 04:43:36;;;;;;;20.90;11.40;;;;;;;-0.24;76.98;99477.65;131002;1253;108659;-78
2024/01/06 04:46:41;;;;;;;22.70;11.90;;;;;;;-0.26;77.11;99481.80;130984;1257;108638;-77
2024/01/06 04:49:47;;;;;;;22.50;12.10;;;;;;;-0.27;77.21;99480.66;131011;1256;107636;-76
2024/01/06 04:52:53;;;;;;;19.90;11.60;;;;;;;-0.29;77.12;99472.55;131032;1251;107708;-78
2024/01/06 04:55:59;;;;;;;19.40;10.90;;;;;;;-0.29;77.29;99472.58;131028;1256;106176;-77
2024/01/06 04:59:04;;;;;;;22.20;11.70;;;;;;;-0.33;77.10;99468.63;131013;1257;108609;-78
2024/01/06 05:02:11;;;;;;;19.30;11.20;;;;;;;-0.36;77.30;99466.04;130970;1263;106654;-77
2024/01/06 05:05:16;;;;;;;19.80;10.90;;;;;;;-0.37;77.41;99470.14;130973;1264;107946;-78
2024/01/06 05:08:22;;;;;;;16.60;9.10;;;;;;;-0.34;77.43;99470.09;131059;1257;107817;-76
2024/01/06 05:11:28;;;;;;;20.70;10.60;;;;;;;-0.28;77.45;99473.92;130980;1256;107737;-78
2024/01/06 05:14:36;;;;;;;19.10;10.80;;;;;;;-0.25;77.38;99476.48;131055;1256;108754;-77
2024/01/06 05:17:42;;;;;;;19.70;10.70;;;;;;;-0.18;77.31;99480.75;131108;1256;107591;-77
2024/01/06 05:20:47;;;;;;;16.60;10.10;;;;;;;-0.15;77.35;99479.33;130965;1256;108547;-77
2024/01/06 05:23:53;;;;;;;16.80;9.70;;;;;;;-0.16;77.35;99482.55;131031;1256;108403;-77
2024/01/06 05:26:59;;;;;;;18.10;10.10;;;;;;;-0.18;77.43;99482.88;131132;1256;106800;-77
2024/01/06 05:30:08;;;;;;;17.80;9.60;;;;;;;-0.20;77.33;99486.45;130972;1256;106368;-77
2024/01/06 05:33:15;;;;;;;18.50;10.10;;;;;;;-0.21;77.41;99488.65;131009;1251;106352;-77
2024/01/06 05:36:22;;;;;;;15.60;9.80;;;;;;;-0.24;77.55;99491.11;131003;1256;107702;-77
2024/01/06 05:39:30;;;;;;;15.80;10.00;;;;;;;-0.27;77.64;99496.73;131054;1256;105240;-77
2024/01/06 05:42:35;;;;;;;17.20;9.70;;;;;;;-0.30;77.60;99499.56;131131;1261;107142;-77
2024/01/06 05:45:41;;;;;;;16.50;9.90;;;;;;;-0.35;77.82;99505.34;130937;1257;106533;-76
2024/01/06 05:48:47;;;;;;;21.20;10.80;;;;;;;-0.41;77.62;99507.45;130951;1257;108495;-77
2024/01/06 05:51:53;;;;;;;19.30;10.80;;;;;;;-0.42;77.80;99512.17;130986;1253;106918;-77
2024/01/06 05:54:59;;;;;;;17.90;9.70;;;;;;;-0.39;77.92;99519.20;131107;1256;107413;-78
2024/01/06 05:58:05;;;;;;;15.10;8.50;;;;;;;-0.35;77.81;99526.45;131100;1257;107096;-78
2024/01/06 06:01:11;;;;;;;15.50;8.70;;;;;;;-0.30;77.65;99539.92;130911;1257;108739;-78
2024/01/06 06:04:16;;;;;;;15.30;8.90;;;;;;;-0.24;77.66;99545.98;130998;1261;107578;-77
2024/01/06 06:07:22;;;;;;;15.30;8.90;;;;;;;-0.18;77.53;99545.77;131018;1256;107354;-77
2024/01/06 06:10:40;;;;;;;14.70;8.50;;;;;;;-0.18;77.63;99546.30;131221;1255;106862;-77
2024/01/06 06:13:46;;;;;;;22.80;12.10;;;;;;;-0.20;77.58;99549.02;131002;1251;107587;-79
2024/01/06 06:16:51;;;;;;;15.70;9.10;;;;;;;-0.20;77.63;99554.29;130969;1257;106838;-77
2024/01/06 06:19:58;;;;;;;14.50;8.60;;;;;;;-0.23;77.66;99566.02;131134;1254;107303;-79
2024/01/06 06:23:04;;;;;;;15.30;8.80;;;;;;;-0.26;77.65;99567.56;131067;1251;108919;-77
2024/01/06 06:26:11;;;;;;;15.50;8.80;;;;;;;-0.29;77.69;99560.64;130987;1264;106276;-78
2024/01/06 06:29:17;;;;;;;15.80;9.20;;;;;;;-0.31;77.77;99558.86;131025;1257;107848;-77
2024/01/06 06:32:23;;;;;;;16.00;9.10;;;;;;;-0.33;77.89;99562.17;131003;1251;108690;-77
2024/01/06 06:35:28;;;;;;;17.10;10.00;;;;;;;-0.36;77.92;99565.32;131004;1256;108600;-78
2024/01/06 06:38:34;;;;;;;20.10;11.00;;;;;;;-0.37;78.06;99569.41;131021;1256;108734;-78
2024/01/06 06:41:40;;;;;;;16.30;9.50;;;;;;;-0.38;78.14;99567.73;131121;1255;106727;-75
2024/01/06 06:44:46;;;;;;;15.50;9.60;;;;;;;-0.40;78.08;99568.15;130723;1256;108626;-75
2024/01/06 06:47:52;;;;;;;13.70;7.80;;;;;;;-0.36;78.43;99571.41;130972;1257;107280;-75
2024/01/06 06:50:58;;;;;;;14.80;8.70;;;;;;;-0.32;78.22;99570.27;130973;1265;105433;-74
2024/01/06 06:54:04;;;;;;;13.80;8.70;;;;;;;-0.26;78.30;99573.17;131015;1265;108022;-75
2024/01/06 06:57:09;;;;;;;16.60;9.50;;;;;;;-0.21;78.21;99572.33;130981;1251;107521;-74
2024/01/06 07:00:17;;;;;;;17.10;9.60;;;;;;;-0.18;78.15;99578.79;130951;1264;107922;-74
2024/01/06 07:03:22;;;;;;;15.90;9.40;;;;;;;-0.16;78.15;99583.21;131053;1253;107737;-74
2024/01/06 07:06:28;;;;;;;14.90;8.40;;;;;;;-0.18;78.10;99582.15;131153;1254;107312;-74
2024/01/06 07:09:34;;;;;;;17.50;9.30;;;;;;;-0.23;78.06;99584.89;130990;1257;106133;-73
2024/01/06 07:12:39;;;;;;;15.50;9.00;;;;;;;-0.26;78.20;99587.71;130838;1256;107617;-74
2024/01/06 07:15:45;;;;;;;14.90;8.70;;;;;;;-0.28;78.26;99591.83;130872;1266;106720;-75
2024/01/06 07:18:52;;;;;;;13.50;8.30;;;;;;;-0.26;78.26;99588.96;130856;1257;106135;-74
2024/01/06 07:21:58;;;;;;;15.80;9.20;;;;;;;-0.26;78.30;99591.06;131521;1257;106731;-74
2024/01/06 07:25:04;;;;;;;15.20;9.30;;;;;;;-0.28;78.28;99599.72;131081;1256;106849;-75
2024/01/06 07:28:10;;;;;;;18.00;10.40;;;;;;;-0.32;78.13;99599.79;130951;1255;108570;-74
2024/01/06 07:31:18;;;;;;;17.20;10.00;;;;;;;-0.33;78.37;99605.28;130992;1256;106795;-73
2024/01/06 07:34:25;;;;;;;16.40;10.30;;;;;;;-0.32;78.42;99605.77;130942;1251;107611;-74
2024/01/06 07:37:31;;;;;;;17.10;8.90;;;;;;;-0.26;78.43;99605.53;131210;1255;106504;-75
2024/01/06 07:40:36;;;;;;;17.40;10.20;;;;;;;-0.17;78.48;99605.27;130915;1256;106723;-75
2024/01/06 07:43:42;;;;;;;17.50;10.70;;;;;;;-0.10;78.24;99602.75;130873;1256;106471;-75
2024/01/06 07:46:47;;;;;;;16.90;9.70;;;;;;;-0.04;78.26;99604.27;130870;1254;108693;-75
2024/01/06 07:49:54;;;;;;;20.00;11.50;;;;;;;-0.04;77.97;99609.85;130870;1264;107555;-75
2024/01/06 07:53:00;;;;;;;47.20;23.50;;;;;;;-0.06;78.04;99607.04;130993;1264;106364;-75
2024/01/06 07:56:07;;;;;;;26.40;13.80;;;;;;;-0.10;78.19;99610.27;130864;1256;108307;-74
2024/01/06 07:59:13;;;;;;;21.10;11.90;;;;;;;-0.15;78.08;99621.98;130876;1253;106219;-73
2024/01/06 08:02:19;;;;;;;28.90;15.30;;;;;;;-0.22;78.29;99620.13;130933;1266;108683;-75
2024/01/06 08:05:24;;;;;;;93.90;40.10;;;;;;;-0.23;78.42;99623.88;130999;1253;107394;-76
2024/01/06 08:08:30;;;;;;;41.80;19.60;;;;;;;-0.22;78.54;99624.66;130870;1254;107797;-75
2024/01/06 08:11:36;;;;;;;43.80;19.20;;;;;;;-0.23;78.49;99629.63;130664;1257;108249;-73
2024/01/06 08:14:41;;;;;;;54.60;24.30;;;;;;;-0.25;78.75;99633.95;131003;1254;106385;-74
2024/01/06 08:17:47;;;;;;;58.00;24.60;;;;;;;-0.22;78.66;99640.73;130721;1257;106793;-74
2024/01/06 08:20:53;;;;;;;55.30;23.40;;;;;;;-0.17;78.76;99645.50;130623;1266;106585;-73
2024/01/06 08:24:07;;;;;;;29.00;13.40;;;;;;;-0.13;78.76;99646.98;130982;1257;106572;-77
2024/01/06 08:27:17;;;;;;;161.50;66.80;;;;;;;-0.07;78.74;99653.05;130910;1255;106717;-74
2024/01/06 08:30:23;;;;;;;57.50;26.20;;;;;;;0.01;78.82;99658.99;130632;1261;108439;-75
2024/01/06 08:33:29;;;;;;;31.30;15.20;;;;;;;0.10;78.77;99659.96;130831;1254;108454;-76
2024/01/06 08:36:45;;;;;;;25.50;13.60;;;;;;;0.15;78.72;99663.55;131680;1253;108476;-76
2024/01/06 08:39:51;;;;;;;55.70;30.80;;;;;;;0.15;78.60;99668.06;131050;1255;107445;-75
2024/01/06 08:42:58;;;;;;;76.00;42.90;;;;;;;0.16;78.65;99668.50;131191;1252;108747;-79
2024/01/06 08:46:05;;;;;;;38.10;21.60;;;;;;;0.20;78.75;99671.59;130921;1257;108497;-79
2024/01/06 08:49:11;;;;;;;56.10;34.20;;;;;;;0.21;78.73;99675.89;130950;1258;108689;-78
2024/01/06 08:52:16;;;;;;;37.30;21.40;;;;;;;0.22;78.74;99681.96;130698;1255;106622;-78
2024/01/06 08:55:23;;;;;;;33.00;19.70;;;;;;;0.24;78.81;99686.73;130704;1257;106489;-79
2024/01/06 08:58:28;;;;;;;33.60;20.50;;;;;;;0.27;78.90;99687.05;130800;1261;107452;-80
2024/01/06 09:01:35;;;;;;;28.70;16.40;;;;;;;0.29;78.83;99689.02;130958;1265;107572;-76
2024/01/06 09:04:41;;;;;;;23.10;12.70;;;;;;;0.29;78.88;99690.95;131091;1255;106734;-79
2024/01/06 09:07:49;;;;;;;21.10;11.50;;;;;;;0.31;78.81;99688.52;131496;1257;106774;-79
2024/01/06 09:11:16;;;;;;;22.20;13.00;;;;;;;0.33;78.77;99680.48;130640;1257;107495;-80
2024/01/06 09:14:24;;;;;;;22.00;13.50;;;;;;;0.39;78.71;99679.27;131624;1257;108450;-79
2024/01/06 09:21:41;;;;;;;20.00;10.70;;;;;;;0.50;78.49;99680.60;131484;1254;109284;-78
2024/01/06 09:24:47;;;;;;;19.90;12.60;;;;;;;0.53;78.57;99685.86;131147;1253;107664;-80
2024/01/06 09:27:53;;;;;;;21.50;13.70;;;;;;;0.50;78.51;99686.04;131619;1257;107705;-79
2024/01/06 09:30:59;;;;;;;26.60;15.60;;;;;;;0.50;78.66;99687.42;131097;1257;107639;-78
2024/01/06 09:34:06;;;;;;;22.20;12.50;;;;;;;0.51;78.54;99694.40;130958;1257;108652;-78
2024/01/06 09:37:12;;;;;;;19.50;11.80;;;;;;;0.47;78.48;99695.50;130977;1257;108688;-78
2024/01/06 09:40:23;;;;;;;19.90;12.00;;;;;;;0.44;78.64;99690.45;131060;1256;106208;-77
2024/01/06 09:43:30;;;;;;;18.80;11.20;;;;;;;0.45;78.39;99696.70;131015;1257;108560;-79
2024/01/06 09:46:40;;;;;;;18.40;11.20;;;;;;;0.41;78.42;99701.73;131022;1254;106386;-78
2024/01/06 09:49:50;;;;;;;22.90;13.10;;;;;;;0.38;78.58;99702.58;130708;1258;107961;-78
2024/01/06 09:53:05;;;;;;;26.70;14.60;;;;;;;0.37;78.59;99702.65;130747;1257;106907;-79
2024/01/06 09:56:12;;;;;;;26.90;15.10;;;;;;;0.40;78.72;99703.14;130705;1254;106751;-76
2024/01/06 09:59:19;;;;;;;24.10;13.10;;;;;;;0.51;78.79;99705.04;130967;1263;107781;-76
2024/01/06 10:02:25;;;;;;;22.00;13.40;;;;;;;0.58;78.35;99708.06;131029;1254;106946;-78
2024/01/06 10:05:31;;;;;;;19.90;12.00;;;;;;;0.62;78.50;99711.17;130903;1257;109007;-79
2024/01/06 10:08:40;;;;;;;21.40;12.50;;;;;;;0.62;78.08;99712.73;130661;1268;108339;-78
2024/01/06 10:11:45;;;;;;;22.60;13.20;;;;;;;0.61;78.48;99715.08;130610;1257;107798;-78
2024/01/06 10:14:51;;;;;;;23.10;12.70;;;;;;;0.58;78.33;99721.23;130609;1254;107728;-78
2024/01/06 10:17:58;;;;;;;22.10;13.20;;;;;;;0.54;78.22;99715.52;130644;1257;108754;-78
2024/01/06 10:21:06;;;;;;;24.40;13.80;;;;;;;0.52;78.30;99717.92;130890;1257;107716;-78
2024/01/06 10:24:12;;;;;;;23.80;14.10;;;;;;;0.51;78.47;99717.14;131446;1257;106825;-77
2024/01/06 10:27:18;;;;;;;24.90;15.50;;;;;;;0.51;78.43;99723.08;131166;1254;108672;-74
2024/01/06 10:30:25;;;;;;;24.10;14.70;;;;;;;0.52;78.61;99723.36;130714;1257;107002;-80
2024/01/06 10:33:33;;;;;;;26.80;15.40;;;;;;;0.53;78.62;99719.92;131338;1257;107213;-75
2024/01/06 10:36:40;;;;;;;28.40;16.50;;;;;;;0.53;78.65;99723.27;131086;1251;106629;-79
2024/01/06 10:39:45;;;;;;;27.20;15.20;;;;;;;0.55;78.69;99715.11;131080;1257;106626;-76
2024/01/06 10:42:52;;;;;;;27.60;16.00;;;;;;;0.57;78.66;99709.21;131033;1251;107563;-76
2024/01/06 10:45:59;;;;;;;23.70;12.80;;;;;;;0.61;78.69;99709.09;130980;1256;109618;-77
2024/01/06 10:49:08;;;;;;;36.20;21.20;;;;;;;0.67;78.58;99710.46;130989;1256;106660;-78
2024/01/06 10:52:14;;;;;;;29.90;17.80;;;;;;;0.69;78.33;99709.64;131182;1254;107420;-78
2024/01/06 10:55:22;;;;;;;28.90;17.60;;;;;;;0.67;78.57;99712.88;131130;1257;107256;-79
2024/01/06 10:58:28;;;;;;;28.20;16.20;;;;;;;0.66;78.51;99713.33;131154;1254;107727;-79
2024/01/06 11:01:35;;;;;;;28.50;16.20;;;;;;;0.58;78.59;99713.36;131142;1254;108713;-81
2024/01/06 11:04:41;;;;;;;27.20;16.20;;;;;;;0.54;78.74;99714.13;131297;1251;107629;-80
2024/01/06 11:07:51;;;;;;;26.70;15.20;;;;;;;0.48;78.75;99710.17;131202;1256;108772;-78
2024/01/06 11:10:58;;;;;;;28.20;15.50;;;;;;;0.46;78.80;99708.89;130983;1254;107569;-79
2024/01/06 11:14:21;;;;;;;26.90;16.00;;;;;;;0.42;78.71;99708.59;131171;1255;107504;-80
2024/01/06 11:17:58;;;;;;;24.50;15.80;;;;;;;0.41;78.74;99702.07;130939;1257;107791;-79
2024/01/06 11:21:25;;;;;;;24.90;14.90;;;;;;;0.35;78.67;99703.27;131566;1251;109011;-79
2024/01/06 11:24:39;;;;;;;29.80;16.20;;;;;;;0.29;78.59;99706.48;131154;1267;107553;-79
2024/01/06 11:27:46;;;;;;;26.50;15.20;;;;;;;0.25;78.93;99708.35;131013;1256;106855;-81
2024/01/06 11:31:08;;;;;;;23.10;13.60;;;;;;;0.24;78.96;99705.11;130948;1254;108693;-77
2024/01/06 11:34:18;;;;;;;25.90;15.30;;;;;;;0.26;78.93;99706.86;131001;1251;106401;-79
2024/01/06 11:37:36;;;;;;;25.40;15.30;;;;;;;0.26;78.78;99713.89;131095;1256;107157;-78
2024/01/06 11:40:43;;;;;;;22.30;14.70;;;;;;;0.26;78.89;99716.55;130894;1256;106344;-79
2024/01/06 11:43:50;;;;;;;25.90;15.50;;;;;;;0.24;78.86;99720.65;130797;1251;106648;-80
2024/01/06 11:47:00;;;;;;;24.90;15.00;;;;;;;0.16;78.91;99727.67;131325;1255;108646;-79
2024/01/06 11:50:07;;;;;;;25.50;15.50;;;;;;;0.13;79.11;99721.75;131244;1252;107167;-79
2024/01/06 11:53:13;;;;;;;31.60;18.40;;;;;;;0.13;78.99;99721.72;131405;1251;108664;-83
2024/01/06 11:56:22;;;;;;;114.90;68.50;;;;;;;0.11;79.24;99715.16;131385;1251;107210;-79
2024/01/06 11:59:27;;;;;;;53.40;28.30;;;;;;;0.08;79.22;99719.23;131756;1251;107687;-80
2024/01/06 12:02:33;;;;;;;50.00;28.90;;;;;;;0.07;79.25;99720.02;131714;1255;108649;-79
2024/01/06 12:05:40;;;;;;;48.10;28.00;;;;;;;0.06;79.33;99721.98;132756;1251;108569;-82
2024/01/06 12:09:00;;;;;;;38.50;21.50;;;;;;;0.08;79.35;99728.35;131689;1253;107413;-80
2024/01/06 12:12:16;;;;;;;38.20;23.60;;;;;;;0.13;79.22;99730.45;131524;1251;109512;-78
2024/01/06 12:15:23;;;;;;;40.30;23.20;;;;;;;0.17;79.18;99734.05;131006;1251;106292;-79
2024/01/06 12:18:29;;;;;;;40.00;23.70;;;;;;;0.22;79.30;99735.13;131156;1251;107864;-80
2024/01/06 12:21:37;;;;;;;36.40;21.60;;;;;;;0.20;79.21;99735.63;131474;1256;106851;-80
2024/01/06 12:24:43;;;;;;;55.20;34.80;;;;;;;0.19;79.14;99737.59;131434;1253;107530;-79
2024/01/06 12:27:55;;;;;;;34.30;20.70;;;;;;;0.18;79.18;99733.27;131023;1252;106193;-78
2024/01/06 12:31:09;;;;;;;36.00;23.50;;;;;;;0.15;79.04;99739.04;131271;1256;107860;-79
2024/01/06 12:34:15;;;;;;;25.40;16.80;;;;;;;0.10;79.09;99740.29;131272;1251;106881;-79
2024/01/06 12:37:21;;;;;;;34.20;19.50;;;;;;;0.01;79.34;99745.77;130930;1255;106722;-79
2024/01/06 12:40:27;;;;;;;32.40;20.40;;;;;;;-0.08;79.51;99744.27;131017;1255;108203;-80
2024/01/06 12:43:32;;;;;;;28.50;16.30;;;;;;;-0.07;79.46;99750.48;130983;1265;106384;-80
2024/01/06 12:46:38;;;;;;;25.70;15.30;;;;;;;-0.07;79.40;99749.05;131268;1256;106285;-80
2024/01/06 12:49:44;;;;;;;30.40;17.60;;;;;;;-0.11;79.39;99749.11;130983;1256;107700;-82
2024/01/06 12:52:50;;;;;;;25.90;16.40;;;;;;;-0.14;79.54;99748.60;131376;1253;107667;-79
2024/01/06 12:55:55;;;;;;;25.70;14.40;;;;;;;-0.09;79.41;99753.23;131585;1251;108660;-80
2024/01/06 12:59:02;;;;;;;24.20;14.70;;;;;;;-0.06;79.46;99753.15;131298;1251;108546;-79
2024/01/06 13:02:09;;;;;;;24.80;16.50;;;;;;;0.00;79.43;99761.38;131047;1254;108551;-81
2024/01/06 13:05:15;;;;;;;26.30;14.00;;;;;;;-0.01;79.34;99767.01;131385;1253;107908;-79
2024/01/06 13:08:21;;;;;;;20.80;12.90;;;;;;;-0.03;79.42;99776.44;131143;1251;107552;-80
2024/01/06 13:11:28;;;;;;;23.20;12.80;;;;;;;-0.08;79.40;99779.15;131245;1251;107970;-80
2024/01/06 13:14:35;;;;;;;26.00;16.00;;;;;;;-0.10;79.36;99788.94;131053;1252;107091;-80
2024/01/06 13:17:41;;;;;;;20.20;13.00;;;;;;;-0.12;79.46;99791.69;130996;1256;108684;-80
2024/01/06 13:20:51;;;;;;;21.00;13.30;;;;;;;-0.19;79.39;99795.96;131443;1256;107059;-79
2024/01/06 13:24:01;;;;;;;21.40;12.60;;;;;;;-0.27;79.51;99792.77;131272;1254;108468;-80
2024/01/06 13:27:06;;;;;;;21.00;12.70;;;;;;;-0.29;79.59;99793.80;131067;1258;108583;-77
2024/01/06 13:30:14;;;;;;;25.50;13.90;;;;;;;-0.27;79.67;99794.23;131106;1252;107624;-78
2024/01/06 13:33:20;;;;;;;26.50;13.50;;;;;;;-0.29;79.69;99794.15;130990;1257;108734;-78
2024/01/06 13:36:26;;;;;;;23.70;13.00;;;;;;;-0.32;79.60;99797.27;131206;1251;106439;-78
2024/01/06 13:39:32;;;;;;;25.00;13.60;;;;;;;-0.27;79.64;99797.68;131034;1256;107549;-80
2024/01/06 13:42:37;;;;;;;31.30;17.70;;;;;;;-0.21;79.70;99805.17;131123;1257;107727;-79
2024/01/06 13:45:45;;;;;;;25.40;14.80;;;;;;;-0.13;79.56;99807.82;131130;1254;107456;-79
2024/01/06 13:48:50;;;;;;;25.00;13.40;;;;;;;-0.12;79.53;99814.23;131262;1256;107399;-80
2024/01/06 13:51:57;;;;;;;25.80;14.10;;;;;;;-0.14;79.55;99814.90;131217;1256;108756;-80
2024/01/06 13:55:03;;;;;;;22.60;12.30;;;;;;;-0.13;79.69;99818.16;131052;1256;108779;-77
2024/01/06 13:58:09;;;;;;;19.00;11.60;;;;;;;-0.14;79.55;99818.77;131002;1256;107650;-78
2024/01/06 14:01:15;;;;;;;19.30;11.60;;;;;;;-0.20;79.46;99820.49;130987;1256;106339;-79
2024/01/06 14:04:23;;;;;;;19.50;11.60;;;;;;;-0.23;79.31;99817.39;131014;1254;108309;-79
2024/01/06 14:07:29;;;;;;;18.60;11.50;;;;;;;-0.30;79.49;99818.28;130987;1253;107107;-78